createdAt,value
2022-09-11T00:00:56.715Z,19.61
2022-09-11T00:03:27.175Z,19.60
2022-09-11T00:05:53.849Z,19.59
2022-09-11T00:08:21.432Z,19.57
2022-09-11T00:10:48.738Z,19.55
2022-09-11T00:13:25.382Z,19.54
2022-09-11T00:15:52.223Z,19.50
2022-09-11T00:18:24.006Z,19.45
2022-09-11T00:20:56.290Z,19.38
2022-09-11T00:23:25.604Z,19.34
2022-09-11T00:25:52.655Z,19.31
2022-09-11T00:28:21.921Z,19.30
2022-09-11T00:31:01.180Z,19.31
2022-09-11T00:33:33.422Z,19.33
2022-09-11T00:36:03.924Z,19.35
2022-09-11T00:38:33.038Z,19.36
2022-09-11T00:41:01.558Z,19.35
2022-09-11T00:43:51.934Z,19.33
2022-09-11T00:46:19.809Z,19.35
2022-09-11T00:48:49.760Z,19.34
2022-09-11T00:51:26.406Z,19.32
2022-09-11T00:53:59.202Z,19.31
2022-09-11T00:56:31.307Z,19.30
2022-09-11T00:58:59.249Z,19.29
2022-09-11T01:01:26.042Z,19.29
2022-09-11T01:03:56.844Z,19.27
2022-09-11T01:06:24.454Z,19.28
2022-09-11T01:08:52.541Z,19.28
2022-09-11T01:11:43.164Z,19.25
2022-09-11T01:14:21.797Z,19.24
2022-09-11T01:17:01.344Z,19.21
2022-09-11T01:19:43.597Z,19.20
2022-09-11T01:22:45.935Z,19.21
2022-09-11T01:25:30.020Z,19.22
2022-09-11T01:28:00.804Z,19.21
2022-09-11T01:30:37.525Z,19.18
2022-09-11T01:33:49.126Z,19.16
2022-09-11T01:36:53.714Z,19.13
2022-09-11T01:39:25.320Z,19.11
2022-09-11T01:41:56.357Z,19.09
2022-09-11T01:44:36.678Z,19.07
2022-09-11T01:47:10.667Z,19.05
2022-09-11T01:49:56.061Z,19.01
2022-09-11T01:52:32.004Z,18.96
2022-09-11T01:55:14.407Z,18.90
2022-09-11T01:57:48.178Z,18.85
2022-09-11T02:00:16.221Z,18.81
2022-09-11T02:02:46.962Z,18.78
2022-09-11T02:05:27.758Z,18.73
2022-09-11T02:07:56.643Z,18.71
2022-09-11T02:10:40.352Z,18.67
2022-09-11T02:13:44.197Z,18.62
2022-09-11T02:16:39.843Z,18.61
2022-09-11T02:19:12.338Z,18.57
2022-09-11T02:21:39.588Z,18.55
2022-09-11T02:24:34.714Z,18.51
2022-09-11T02:27:04.718Z,18.55
2022-09-11T02:29:32.802Z,18.52
2022-09-11T02:32:00.796Z,18.51
2022-09-11T02:34:34.257Z,18.52
2022-09-11T02:37:11.038Z,18.53
2022-09-11T02:40:15.523Z,18.52
2022-09-11T02:42:55.238Z,18.52
2022-09-11T02:45:32.530Z,18.51
2022-09-11T02:48:23.984Z,18.51
2022-09-11T02:51:12.250Z,18.51
2022-09-11T02:54:04.130Z,18.51
2022-09-11T02:56:34.081Z,18.54
2022-09-11T02:59:07.329Z,18.52
2022-09-11T03:01:53.126Z,18.50
2022-09-11T03:04:24.638Z,18.51
2022-09-11T03:06:53.632Z,18.50
2022-09-11T03:09:20.846Z,18.46
2022-09-11T03:11:51.150Z,18.42
2022-09-11T03:14:19.435Z,18.36
2022-09-11T03:16:46.806Z,18.31
2022-09-11T03:19:14.164Z,18.30
2022-09-11T03:21:40.619Z,18.33
2022-09-11T03:24:13.102Z,18.33
2022-09-11T03:26:39.759Z,18.35
2022-09-11T03:29:06.798Z,18.36
2022-09-11T03:31:37.364Z,18.37
2022-09-11T03:34:10.408Z,18.38
2022-09-11T03:36:37.168Z,18.38
2022-09-11T03:39:05.239Z,18.38
2022-09-11T03:41:32.585Z,18.39
2022-09-11T03:44:00.822Z,18.39
2022-09-11T03:46:28.887Z,18.39
2022-09-11T03:48:55.463Z,18.38
2022-09-11T03:51:21.942Z,18.38
2022-09-11T03:53:49.506Z,18.35
2022-09-11T03:56:16.241Z,18.32
2022-09-11T03:58:48.035Z,18.29
2022-09-11T04:01:16.078Z,18.25
2022-09-11T04:03:47.446Z,18.21
2022-09-11T04:06:26.715Z,18.14
2022-09-11T04:08:54.705Z,18.03
2022-09-11T04:11:22.514Z,17.95
2022-09-11T04:13:54.695Z,17.91
2022-09-11T04:16:24.653Z,17.92
2022-09-11T04:18:54.290Z,17.95
2022-09-11T04:21:21.302Z,17.97
2022-09-11T04:24:00.298Z,17.95
2022-09-11T04:26:31.257Z,17.91
2022-09-11T04:29:05.357Z,17.84
2022-09-11T04:31:34.398Z,17.80
2022-09-11T04:34:01.491Z,17.72
2022-09-11T04:36:32.038Z,17.70
2022-09-11T04:39:00.094Z,17.72
2022-09-11T04:41:28.506Z,17.74
2022-09-11T04:44:22.232Z,17.77
2022-09-11T04:46:48.678Z,17.83
2022-09-11T04:49:15.551Z,17.85
2022-09-11T04:51:45.171Z,17.87
2022-09-11T04:54:21.286Z,17.90
2022-09-11T04:56:48.879Z,17.91
2022-09-11T04:59:20.216Z,17.92
2022-09-11T05:01:55.161Z,17.94
2022-09-11T05:04:26.961Z,17.95
2022-09-11T05:06:55.069Z,17.97
2022-09-11T05:09:22.262Z,18.02
2022-09-11T05:11:48.875Z,18.05
2022-09-11T05:14:20.656Z,18.08
2022-09-11T05:16:50.045Z,18.10
2022-09-11T05:19:19.038Z,18.13
2022-09-11T05:21:46.188Z,18.13
2022-09-11T05:24:17.310Z,18.15
2022-09-11T05:26:43.816Z,18.16
2022-09-11T05:29:14.847Z,18.16
2022-09-11T05:32:07.460Z,18.17
2022-09-11T05:34:35.339Z,18.15
2022-09-11T05:37:02.368Z,18.13
2022-09-11T05:39:32.446Z,18.13
2022-09-11T05:42:01.542Z,18.15
2022-09-11T05:44:37.060Z,18.17
2022-09-11T05:47:04.754Z,18.17
2022-09-11T05:49:31.850Z,18.15
2022-09-11T05:51:59.917Z,18.12
2022-09-11T05:54:30.265Z,18.10
2022-09-11T05:56:59.125Z,18.13
2022-09-11T05:59:27.117Z,18.17
2022-09-11T06:01:54.240Z,18.19
2022-09-11T06:04:33.334Z,18.21
2022-09-11T06:07:00.165Z,18.23
2022-09-11T06:09:28.126Z,18.26
2022-09-11T06:11:54.757Z,18.27
2022-09-11T06:14:25.121Z,18.31
2022-09-11T06:16:51.677Z,18.35
2022-09-11T06:19:19.078Z,18.37
2022-09-11T06:21:46.250Z,18.34
2022-09-11T06:24:28.313Z,18.31
2022-09-11T06:26:56.237Z,18.30
2022-09-11T06:29:24.099Z,18.32
2022-09-11T06:31:51.619Z,18.31
2022-09-11T06:34:23.282Z,18.29
2022-09-11T06:36:52.392Z,18.27
2022-09-11T06:39:22.686Z,18.25
2022-09-11T06:41:50.263Z,18.23
2022-09-11T06:44:21.662Z,18.26
2022-09-11T06:46:48.137Z,18.26
2022-09-11T06:49:14.603Z,18.26
2022-09-11T06:51:59.606Z,18.30
2022-09-11T06:54:31.815Z,18.35
2022-09-11T06:57:02.469Z,18.41
2022-09-11T06:59:28.927Z,18.39
2022-09-11T07:01:55.911Z,18.41
2022-09-11T07:04:23.358Z,18.43
2022-09-11T07:06:50.418Z,18.47
2022-09-11T07:09:17.411Z,18.50
2022-09-11T07:11:50.091Z,18.56
2022-09-11T07:14:21.429Z,18.56
2022-09-11T07:16:52.822Z,18.57
2022-09-11T07:19:19.434Z,18.60
2022-09-11T07:21:45.922Z,18.65
2022-09-11T07:24:17.366Z,18.64
2022-09-11T07:26:44.501Z,18.60
2022-09-11T07:29:18.394Z,18.54
2022-09-11T07:31:50.070Z,18.49
2022-09-11T07:34:18.274Z,18.55
2022-09-11T07:36:45.581Z,18.59
2022-09-11T07:39:12.746Z,18.61
2022-09-11T07:41:49.296Z,18.67
2022-09-11T07:44:25.837Z,18.70
2022-09-11T07:46:53.002Z,18.72
2022-09-11T07:49:21.505Z,18.76
2022-09-11T07:51:48.387Z,18.84
2022-09-11T07:54:21.770Z,18.91
2022-09-11T07:56:48.706Z,18.96
2022-09-11T07:59:18.203Z,19.01
2022-09-11T08:01:47.850Z,19.02
2022-09-11T08:04:16.668Z,19.04
2022-09-11T08:06:43.951Z,19.04
2022-09-11T08:09:20.294Z,19.08
2022-09-11T08:11:55.606Z,19.08
2022-09-11T08:14:27.274Z,19.09
2022-09-11T08:16:57.282Z,19.15
2022-09-11T08:19:26.697Z,19.18
2022-09-11T08:21:56.235Z,19.23
2022-09-11T08:24:24.421Z,19.30
2022-09-11T08:26:55.225Z,19.38
2022-09-11T08:29:21.970Z,19.45
2022-09-11T08:31:48.811Z,19.54
2022-09-11T08:34:22.204Z,19.62
2022-09-11T08:36:50.873Z,19.73
2022-09-11T08:39:17.875Z,19.80
2022-09-11T08:41:53.482Z,19.87
2022-09-11T08:44:38.518Z,19.96
2022-09-11T08:47:31.036Z,20.11
2022-09-11T08:50:08.913Z,20.18
2022-09-11T08:52:36.725Z,20.24
2022-09-11T08:55:17.130Z,20.26
2022-09-11T08:57:54.898Z,20.33
2022-09-11T09:00:38.277Z,20.37
2022-09-11T09:03:40.117Z,20.39
2022-09-11T09:06:21.548Z,20.46
2022-09-11T09:09:13.939Z,20.47
2022-09-11T09:11:50.836Z,20.52
2022-09-11T09:14:47.462Z,20.56
2022-09-11T09:17:14.394Z,20.58
2022-09-11T09:19:50.021Z,20.63
2022-09-11T09:22:26.532Z,20.70
2022-09-11T09:25:01.229Z,20.78
2022-09-11T09:27:37.110Z,20.86
2022-09-11T09:30:07.501Z,20.91
2022-09-11T09:32:51.366Z,20.93
2022-09-11T09:35:39.354Z,21.01
2022-09-11T09:38:18.668Z,21.10
2022-09-11T09:40:59.813Z,21.18
2022-09-11T09:44:08.804Z,21.29
2022-09-11T09:46:41.711Z,21.43
2022-09-11T09:49:17.145Z,21.56
2022-09-11T09:51:43.755Z,21.71
2022-09-11T09:54:26.629Z,21.84
2022-09-11T09:57:02.497Z,21.87
2022-09-11T09:59:43.385Z,21.92
2022-09-11T10:02:09.862Z,21.98
2022-09-11T10:04:40.639Z,22.02
2022-09-11T10:07:10.510Z,22.08
2022-09-11T10:09:46.764Z,22.14
2022-09-11T10:12:21.652Z,22.25
2022-09-11T10:15:01.279Z,22.31
2022-09-11T10:17:31.894Z,22.37
2022-09-11T10:20:23.099Z,22.39
2022-09-11T10:22:51.185Z,22.47
2022-09-11T10:25:26.526Z,22.53
2022-09-11T10:28:14.532Z,22.61
2022-09-11T10:31:00.504Z,22.70
2022-09-11T10:33:37.102Z,22.80
2022-09-11T10:36:07.942Z,22.90
2022-09-11T10:38:46.511Z,23.02
2022-09-11T10:41:13.178Z,23.19
2022-09-11T10:44:00.336Z,23.32
2022-09-11T10:46:39.427Z,23.52
2022-09-11T10:49:05.828Z,23.72
2022-09-11T10:51:35.203Z,23.88
2022-09-11T10:54:16.946Z,23.99
2022-09-11T10:57:09.504Z,24.07
2022-09-11T10:59:49.937Z,24.17
2022-09-11T11:02:20.651Z,24.28
2022-09-11T11:04:52.177Z,24.35
2022-09-11T11:07:36.291Z,24.37
2022-09-11T11:10:13.117Z,24.43
2022-09-11T11:13:06.439Z,24.50
2022-09-11T11:15:53.058Z,24.63
2022-09-11T11:18:31.380Z,24.81
2022-09-11T11:21:32.760Z,24.97
2022-09-11T11:24:17.607Z,25.11
2022-09-11T11:26:44.059Z,25.16
2022-09-11T11:29:16.152Z,25.18
2022-09-11T11:32:15.854Z,25.13
2022-09-11T11:35:01.137Z,25.11
2022-09-11T11:37:34.063Z,25.10
2022-09-11T11:40:19.700Z,25.06
2022-09-11T11:42:56.113Z,24.96
2022-09-11T11:45:32.354Z,24.87
2022-09-11T11:48:02.146Z,24.82
2022-09-11T11:50:52.664Z,24.79
2022-09-11T11:53:48.621Z,24.88
2022-09-11T11:56:22.687Z,25.04
2022-09-11T11:59:13.470Z,25.19
2022-09-11T12:02:25.990Z,25.29
2022-09-11T12:05:02.120Z,25.37
2022-09-11T12:07:34.165Z,25.41
2022-09-11T12:10:02.879Z,25.45
2022-09-11T12:12:33.840Z,25.52
2022-09-11T12:15:08.181Z,25.63
2022-09-11T12:17:40.126Z,25.73
2022-09-11T12:20:09.469Z,25.82
2022-09-11T12:22:48.558Z,25.91
2022-09-11T12:25:20.942Z,26.05
2022-09-11T12:27:48.790Z,26.14
2022-09-11T12:30:18.300Z,26.22
2022-09-11T12:32:49.797Z,26.32
2022-09-11T12:35:34.876Z,26.37
2022-09-11T12:38:19.842Z,26.42
2022-09-11T12:41:07.338Z,26.50
2022-09-11T12:43:37.252Z,26.59
2022-09-11T12:46:10.218Z,26.64
2022-09-11T12:48:56.249Z,26.75
2022-09-11T12:51:39.047Z,26.95
2022-09-11T12:54:21.880Z,27.07
2022-09-11T12:56:59.250Z,27.21
2022-09-11T12:59:51.539Z,27.29
2022-09-11T13:02:36.589Z,27.42
2022-09-11T13:05:06.171Z,27.54
2022-09-11T13:07:43.003Z,27.66
2022-09-11T13:10:25.864Z,27.79
2022-09-11T13:12:55.768Z,27.95
2022-09-11T13:15:38.763Z,28.09
2022-09-11T13:18:37.590Z,28.11
2022-09-11T13:21:10.578Z,28.06
2022-09-11T13:23:44.759Z,27.95
2022-09-11T13:26:26.176Z,27.91
2022-09-11T13:28:56.228Z,27.91
2022-09-11T13:31:33.531Z,27.94
2022-09-11T13:34:11.941Z,27.99
2022-09-11T13:36:39.498Z,27.92
2022-09-11T13:39:07.981Z,27.85
2022-09-11T13:41:39.950Z,27.79
2022-09-11T13:44:30.205Z,27.72
2022-09-11T13:46:56.839Z,27.71
2022-09-11T13:49:38.923Z,27.72
2022-09-11T13:52:06.529Z,27.77
2022-09-11T13:55:10.844Z,27.80
2022-09-11T13:57:54.633Z,27.75
2022-09-11T14:00:39.534Z,27.71
2022-09-11T14:03:16.724Z,27.75
2022-09-11T14:05:53.898Z,27.81
2022-09-11T14:08:27.082Z,27.83
2022-09-11T14:10:56.823Z,27.87
2022-09-11T14:13:26.149Z,27.95
2022-09-11T14:15:56.753Z,28.03
2022-09-11T14:18:29.093Z,28.11
2022-09-11T14:20:59.224Z,28.20
2022-09-11T14:23:31.218Z,28.25
2022-09-11T14:26:08.287Z,28.26
2022-09-11T14:28:47.885Z,28.25
2022-09-11T14:31:28.486Z,28.22
2022-09-11T14:34:18.233Z,28.27
2022-09-11T14:36:49.975Z,28.35
2022-09-11T14:39:42.307Z,28.34
2022-09-11T14:42:18.282Z,28.31
2022-09-11T14:44:44.962Z,28.27
2022-09-11T14:47:26.050Z,28.23
2022-09-11T14:49:54.488Z,28.21
2022-09-11T14:52:29.316Z,28.18
2022-09-11T14:54:57.031Z,28.19
2022-09-11T14:57:26.983Z,28.20
2022-09-11T14:59:53.481Z,28.18
2022-09-11T15:02:23.359Z,28.15
2022-09-11T15:04:56.490Z,28.10
2022-09-11T15:07:24.155Z,28.12
2022-09-11T15:09:52.485Z,28.12
2022-09-11T15:12:19.288Z,28.12
2022-09-11T15:14:57.092Z,28.10
2022-09-11T15:17:25.139Z,28.07
2022-09-11T15:19:52.600Z,28.02
2022-09-11T15:22:19.381Z,27.93
2022-09-11T15:24:46.642Z,27.85
2022-09-11T15:27:13.094Z,27.75
2022-09-11T15:29:40.597Z,27.62
2022-09-11T15:32:07.865Z,27.52
2022-09-11T15:34:35.800Z,27.39
2022-09-11T15:37:02.556Z,27.29
2022-09-11T15:39:29.064Z,27.20
2022-09-11T15:41:56.212Z,27.12
2022-09-11T15:44:28.595Z,27.04
2022-09-11T15:46:56.854Z,26.97
2022-09-11T15:49:24.024Z,26.87
2022-09-11T15:51:52.328Z,26.82
2022-09-11T15:54:20.532Z,26.76
2022-09-11T15:56:47.189Z,26.68
2022-09-11T15:59:17.955Z,26.58
2022-09-11T16:01:44.979Z,26.50
2022-09-11T16:04:36.594Z,26.42
2022-09-11T16:07:03.453Z,26.38
2022-09-11T16:09:31.592Z,26.30
2022-09-11T16:12:00.185Z,26.26
2022-09-11T16:14:31.011Z,26.23
2022-09-11T16:16:58.415Z,26.18
2022-09-11T16:19:27.764Z,26.12
2022-09-11T16:21:56.926Z,26.06
2022-09-11T16:24:25.875Z,26.01
2022-09-11T16:26:56.346Z,25.98
2022-09-11T16:29:25.573Z,25.96
2022-09-11T16:31:52.269Z,25.91
2022-09-11T16:34:23.553Z,25.86
2022-09-11T16:36:50.196Z,25.83
2022-09-11T16:39:21.696Z,25.82
2022-09-11T16:41:48.541Z,25.79
2022-09-11T16:44:19.739Z,25.74
2022-09-11T16:46:46.422Z,25.70
2022-09-11T16:49:17.627Z,25.66
2022-09-11T16:51:45.732Z,25.64
2022-09-11T16:54:14.748Z,25.60
2022-09-11T16:56:45.880Z,25.59
2022-09-11T16:59:12.760Z,25.56
2022-09-11T17:01:39.678Z,25.52
2022-09-11T17:04:07.287Z,25.48
2022-09-11T17:06:33.881Z,25.44
2022-09-11T17:09:04.050Z,25.41
2022-09-11T17:11:32.373Z,25.36
2022-09-11T17:14:03.393Z,25.31
2022-09-11T17:16:32.136Z,25.27
2022-09-11T17:18:59.824Z,25.19
2022-09-11T17:21:26.853Z,25.12
2022-09-11T17:23:57.246Z,25.05
2022-09-11T17:26:24.111Z,24.98
2022-09-11T17:28:51.831Z,24.90
2022-09-11T17:31:19.440Z,24.83
2022-09-11T17:33:49.659Z,24.76
2022-09-11T17:36:19.040Z,24.68
2022-09-11T17:38:48.197Z,24.61
2022-09-11T17:41:15.635Z,24.55
2022-09-11T17:43:48.091Z,24.50
2022-09-11T17:46:17.352Z,24.43
2022-09-11T17:48:44.191Z,24.36
2022-09-11T17:51:13.639Z,24.30
2022-09-11T17:53:42.489Z,24.24
2022-09-11T17:56:11.878Z,24.17
2022-09-11T17:58:38.578Z,24.12
2022-09-11T18:01:06.071Z,24.04
2022-09-11T18:03:36.230Z,23.97
2022-09-11T18:06:15.602Z,23.92
2022-09-11T18:08:42.252Z,23.84
2022-09-11T18:11:09.435Z,23.75
2022-09-11T18:13:37.858Z,23.62
2022-09-11T18:16:07.432Z,23.53
2022-09-11T18:18:36.077Z,23.48
2022-09-11T18:21:08.862Z,23.41
2022-09-11T18:23:42.413Z,23.29
2022-09-11T18:26:23.426Z,23.19
2022-09-11T18:28:50.638Z,23.13
2022-09-11T18:31:17.198Z,23.06
2022-09-11T18:33:53.150Z,23.00
2022-09-11T18:36:20.766Z,22.96
2022-09-11T18:39:00.022Z,22.92
2022-09-11T18:41:28.118Z,22.90
2022-09-11T18:44:00.825Z,22.86
2022-09-11T18:46:27.883Z,22.81
2022-09-11T18:48:55.808Z,22.73
2022-09-11T18:51:22.366Z,22.67
2022-09-11T18:53:54.487Z,22.58
2022-09-11T18:56:23.645Z,22.51
2022-09-11T18:58:52.129Z,22.47
2022-09-11T19:01:21.135Z,22.38
2022-09-11T19:03:53.337Z,22.30
2022-09-11T19:06:22.294Z,22.27
2022-09-11T19:08:49.012Z,22.23
2022-09-11T19:11:18.706Z,22.17
2022-09-11T19:13:48.590Z,22.13
2022-09-11T19:18:43.326Z,22.05
2022-09-11T19:21:22.252Z,22.02
2022-09-11T19:24:00.156Z,21.97
2022-09-11T19:26:37.529Z,21.94
2022-09-11T19:29:04.516Z,21.93
2022-09-11T19:31:31.992Z,21.88
2022-09-11T19:34:01.561Z,21.84
2022-09-11T19:36:30.945Z,21.76
2022-09-11T19:39:00.504Z,21.69
2022-09-11T19:41:33.478Z,21.63
2022-09-11T19:44:02.956Z,21.58
2022-09-11T19:46:31.525Z,21.56
2022-09-11T19:49:00.803Z,21.55
2022-09-11T19:51:30.737Z,21.57
2022-09-11T19:54:02.784Z,21.59
2022-09-11T19:56:31.483Z,21.59
2022-09-11T19:58:58.028Z,21.61
2022-09-11T20:01:25.844Z,21.62
2022-09-11T20:03:57.581Z,21.59
2022-09-11T20:06:26.535Z,21.50
2022-09-11T20:09:07.940Z,21.46
2022-09-11T20:11:40.354Z,21.46
2022-09-11T20:14:32.598Z,21.46
2022-09-11T20:17:00.905Z,21.47
2022-09-11T20:19:28.038Z,21.46
2022-09-11T20:21:54.473Z,21.45
2022-09-11T20:24:22.881Z,21.41
2022-09-11T20:26:50.190Z,21.36
2022-09-11T20:29:16.684Z,21.35
2022-09-11T20:31:48.836Z,21.35
2022-09-11T20:34:19.683Z,21.37
2022-09-11T20:36:46.703Z,21.37
2022-09-11T20:39:14.028Z,21.36
2022-09-11T20:41:40.692Z,21.35
2022-09-11T20:44:11.938Z,21.33
2022-09-11T20:46:38.505Z,21.28
2022-09-11T20:49:05.494Z,21.21
2022-09-11T20:51:32.937Z,21.10
2022-09-11T20:54:05.529Z,21.05
2022-09-11T20:56:32.009Z,20.99
2022-09-11T20:59:00.022Z,20.92
2022-09-11T21:01:29.817Z,20.84
2022-09-11T21:04:00.428Z,20.78
2022-09-11T21:06:32.895Z,20.70
2022-09-11T21:09:02.650Z,20.64
2022-09-11T21:11:30.033Z,20.57
2022-09-11T21:13:56.549Z,20.49
2022-09-11T21:16:23.241Z,20.41
2022-09-11T21:18:52.710Z,20.33
2022-09-11T21:21:20.802Z,20.30
2022-09-11T21:23:56.179Z,20.27
2022-09-11T21:26:22.839Z,20.31
2022-09-11T21:28:49.280Z,20.37
2022-09-11T21:31:15.764Z,20.37
2022-09-11T21:33:45.762Z,20.37
2022-09-11T21:36:12.369Z,20.37
2022-09-11T21:38:39.278Z,20.38
2022-09-11T21:41:08.711Z,20.37
2022-09-11T21:43:40.065Z,20.35
2022-09-11T21:46:08.743Z,20.34
2022-09-11T21:48:36.896Z,20.29
2022-09-11T21:51:06.499Z,20.27
2022-09-11T21:53:38.312Z,20.24
2022-09-11T21:56:05.348Z,20.21
2022-09-11T21:58:32.310Z,20.16
2022-09-11T22:01:08.121Z,20.11
2022-09-11T22:03:36.676Z,20.10
2022-09-11T22:06:10.627Z,20.09
2022-09-11T22:08:39.769Z,20.09
2022-09-11T22:11:07.247Z,20.07
2022-09-11T22:13:36.388Z,20.05
2022-09-11T22:16:05.604Z,20.06
2022-09-11T22:18:32.518Z,20.04
2022-09-11T22:21:01.223Z,20.03
2022-09-11T22:23:30.990Z,20.01
2022-09-11T22:26:05.766Z,19.97
2022-09-11T22:28:32.319Z,19.92
2022-09-11T22:30:58.771Z,19.85
2022-09-11T22:33:27.134Z,19.72
2022-09-11T22:35:53.559Z,19.60
2022-09-11T22:38:20.066Z,19.44
2022-09-11T22:40:52.309Z,19.33
2022-09-11T22:43:19.242Z,19.27
2022-09-11T22:45:51.003Z,19.25
2022-09-11T22:48:17.794Z,19.25
2022-09-11T22:50:44.607Z,19.26
2022-09-11T22:53:11.057Z,19.25
2022-09-11T22:55:43.862Z,19.25
2022-09-11T22:58:10.550Z,19.25
2022-09-11T23:00:37.271Z,19.26
2022-09-11T23:03:03.889Z,19.24
2022-09-11T23:05:49.034Z,19.22
2022-09-11T23:08:15.786Z,19.21
2022-09-11T23:10:43.860Z,19.17
2022-09-11T23:13:10.653Z,19.10
2022-09-11T23:15:41.926Z,19.01
2022-09-11T23:18:09.125Z,18.97
2022-09-11T23:20:35.620Z,18.96
2022-09-11T23:23:03.405Z,18.95
2022-09-11T23:25:31.609Z,18.93
2022-09-11T23:27:58.076Z,18.93
2022-09-11T23:30:24.556Z,18.91
2022-09-11T23:32:53.154Z,18.90
2022-09-11T23:35:19.627Z,18.89
2022-09-11T23:37:46.060Z,18.89
2022-09-11T23:40:12.654Z,18.87
2022-09-11T23:42:39.134Z,18.86
2022-09-11T23:45:07.498Z,18.81
2022-09-11T23:47:33.928Z,18.80
2022-09-11T23:50:00.630Z,18.77
2022-09-11T23:52:27.058Z,18.76
2022-09-11T23:54:57.451Z,18.73
2022-09-11T23:57:23.936Z,18.72
2022-09-11T23:59:50.361Z,18.72
